Time;durP1;ratioP1;P1;durP2;ratioP2;P2;SDS_P1;SDS_P2;PMS_P1;PMS_P2;Temp;Humidity;BMP_temperature;BMP_pressure;BME280_temperature;BME280_humidity;BME280_pressure;Samples;Min_cycle;Max_cycle;Signal;HPM_P1;HPM_P2
2021/01/01 00:02:18;;;;;;;23.05;13.40;;;4.10;85.50;;;;;;5011496;28;20044;-69
2021/01/01 00:04:44;;;;;;;26.50;13.65;;;4.10;85.70;;;;;;5010611;28;20057;-69
2021/01/01 00:07:09;;;;;;;25.27;14.00;;;4.10;85.80;;;;;;5010932;28;20026;-69
2021/01/01 00:09:35;;;;;;;23.45;14.05;;;4.10;85.90;;;;;;5011672;28;20030;-69
2021/01/01 00:12:01;;;;;;;29.10;16.00;;;4.10;85.90;;;;;;5010862;28;20022;-71
2021/01/01 00:14:26;;;;;;;37.25;19.10;;;4.10;85.70;;;;;;5013955;28;20033;-69
2021/01/01 00:16:52;;;;;;;28.98;17.73;;;4.10;85.80;;;;;;5024495;28;20057;-69
2021/01/01 00:19:17;;;;;;;32.47;19.38;;;4.10;85.80;;;;;;5015204;28;20026;-69
2021/01/01 00:21:43;;;;;;;29.23;17.58;;;4.10;85.90;;;;;;5011219;28;20084;-69
2021/01/01 00:24:08;;;;;;;31.40;19.05;;;4.10;85.90;;;;;;5006270;28;20491;-70
2021/01/01 00:26:35;;;;;;;34.33;19.50;;;4.10;85.90;;;;;;5011387;28;20097;-69
2021/01/01 00:29:01;;;;;;;33.40;17.52;;;4.10;85.80;;;;;;5011642;28;20504;-69
2021/01/01 00:31:27;;;;;;;31.75;17.02;;;4.10;85.80;;;;;;5009289;28;20065;-69
2021/01/01 00:33:53;;;;;;;32.05;18.15;;;4.10;85.80;;;;;;5010455;28;20475;-69
2021/01/01 00:36:22;;;;;;;29.30;15.18;;;4.10;85.80;;;;;;5010875;28;20087;-69
2021/01/01 00:38:50;;;;;;;33.17;15.60;;;4.10;85.70;;;;;;5010711;28;20026;-69
2021/01/01 00:41:34;;;;;;;34.40;19.77;;;4.10;85.70;;;;;;5011033;28;20156;-69
2021/01/01 00:44:01;;;;;;;27.88;15.23;;;4.10;85.70;;;;;;5014833;28;20026;-70
2021/01/01 00:46:28;;;;;;;29.77;16.35;;;4.10;85.70;;;;;;5011702;28;20108;-69
2021/01/01 00:48:57;;;;;;;28.48;15.82;;;4.10;85.80;;;;;;5015931;28;20033;-69
2021/01/01 00:51:29;;;;;;;37.63;19.55;;;4.10;85.80;;;;;;5013919;28;20083;-69
2021/01/01 00:53:56;;;;;;;28.10;15.55;;;4.10;85.90;;;;;;5012748;28;20573;-69
2021/01/01 00:56:22;;;;;;;29.25;15.90;;;4.20;85.90;;;;;;5013256;28;20050;-69
2021/01/01 00:58:50;;;;;;;34.17;17.20;;;4.10;85.80;;;;;;5014457;28;20045;-69
2021/01/01 01:01:22;;;;;;;27.27;15.68;;;4.10;85.70;;;;;;5013748;28;20018;-69
2021/01/01 01:03:48;;;;;;;29.15;14.15;;;4.10;85.70;;;;;;5014230;28;20026;-69
2021/01/01 01:06:13;;;;;;;30.67;15.25;;;4.10;85.70;;;;;;5013604;28;20068;-69
2021/01/01 01:08:39;;;;;;;26.25;14.63;;;4.10;85.80;;;;;;5014052;28;20037;-69
2021/01/01 01:11:04;;;;;;;25.20;14.07;;;4.10;85.70;;;;;;5014039;28;20041;-69
2021/01/01 01:13:30;;;;;;;28.30;14.55;;;4.10;85.70;;;;;;5013769;28;20029;-69
2021/01/01 01:15:55;;;;;;;26.35;12.90;;;4.10;85.60;;;;;;5012858;28;20126;-69
2021/01/01 01:18:21;;;;;;;21.35;11.90;;;4.10;85.70;;;;;;5020532;28;20486;-69
2021/01/01 01:20:46;;;;;;;24.58;13.52;;;4.10;85.80;;;;;;5013803;28;20379;-69
2021/01/01 01:23:12;;;;;;;22.15;11.98;;;4.10;85.90;;;;;;5013721;28;20065;-69
2021/01/01 01:25:37;;;;;;;22.90;12.50;;;4.10;85.80;;;;;;5011770;28;20030;-69
2021/01/01 01:28:03;;;;;;;20.77;12.27;;;4.10;85.90;;;;;;5013678;28;20037;-71
2021/01/01 01:30:29;;;;;;;20.48;11.57;;;4.10;85.70;;;;;;5013720;28;20032;-69
2021/01/01 01:32:54;;;;;;;20.88;11.95;;;4.10;85.70;;;;;;5013553;28;20030;-69
2021/01/01 01:35:20;;;;;;;20.50;11.55;;;4.10;85.90;;;;;;5012885;28;20748;-69
2021/01/01 01:37:46;;;;;;;18.25;11.15;;;4.00;85.90;;;;;;5013514;28;20037;-69
2021/01/01 01:40:11;;;;;;;19.88;11.40;;;4.00;86.00;;;;;;5013044;28;20330;-69
2021/01/01 01:42:37;;;;;;;20.83;12.48;;;4.00;86.10;;;;;;5013126;28;20502;-69
2021/01/01 01:45:08;;;;;;;21.38;12.50;;;4.00;86.20;;;;;;5012099;28;20076;-69
2021/01/01 01:47:34;;;;;;;19.77;11.40;;;4.00;86.20;;;;;;5012803;28;20457;-69
2021/01/01 01:50:00;;;;;;;23.30;12.52;;;4.10;86.20;;;;;;5013296;28;20076;-69
2021/01/01 01:52:26;;;;;;;21.17;12.60;;;4.10;86.20;;;;;;5011668;28;20060;-69
2021/01/01 01:54:53;;;;;;;19.67;12.45;;;4.10;86.00;;;;;;5011737;28;20488;-69
2021/01/01 01:57:21;;;;;;;22.13;12.18;;;4.20;85.90;;;;;;5011542;28;20036;-71
2021/01/01 01:59:49;;;;;;;24.15;11.88;;;4.20;85.90;;;;;;5013033;28;20371;-71
2021/01/01 02:02:15;;;;;;;20.83;11.50;;;4.20;85.70;;;;;;5011531;28;20509;-69
2021/01/01 02:04:43;;;;;;;17.88;11.38;;;4.20;85.70;;;;;;5012450;28;20025;-69
2021/01/01 02:07:09;;;;;;;17.75;11.23;;;4.20;85.70;;;;;;5013134;28;20108;-69
2021/01/01 02:09:35;;;;;;;21.00;11.93;;;4.20;85.70;;;;;;5012971;28;20482;-69
2021/01/01 02:12:00;;;;;;;21.98;11.65;;;4.20;85.70;;;;;;5011487;28;20398;-69
2021/01/01 02:14:26;;;;;;;20.63;11.43;;;4.20;85.70;;;;;;5012116;28;20465;-69
2021/01/01 02:16:52;;;;;;;18.90;10.85;;;4.20;85.70;;;;;;5011057;28;20034;-69
2021/01/01 02:19:17;;;;;;;23.02;12.20;;;4.20;85.80;;;;;;5012294;28;20034;-69
2021/01/01 02:21:43;;;;;;;22.27;12.60;;;4.20;85.80;;;;;;5011632;28;20087;-69
2021/01/01 02:24:10;;;;;;;25.33;13.05;;;4.20;85.70;;;;;;5008009;28;20028;-69
2021/01/01 02:26:36;;;;;;;24.70;12.13;;;4.20;85.70;;;;;;5012485;28;20371;-69
2021/01/01 02:29:02;;;;;;;21.77;12.95;;;4.10;85.70;;;;;;5011534;28;20030;-69
2021/01/01 02:31:28;;;;;;;23.23;13.75;;;4.10;85.80;;;;;;5012270;28;20037;-69
2021/01/01 02:33:53;;;;;;;25.05;14.60;;;4.10;85.90;;;;;;5011588;28;20033;-69
2021/01/01 02:36:19;;;;;;;23.17;12.45;;;4.10;86.10;;;;;;5012714;28;20033;-69
2021/01/01 02:38:46;;;;;;;29.27;14.43;;;4.10;86.10;;;;;;5012568;28;20029;-69
2021/01/01 02:41:11;;;;;;;28.20;13.77;;;4.10;86.10;;;;;;5011931;28;20026;-69
2021/01/01 02:43:37;;;;;;;21.70;12.82;;;4.20;86.00;;;;;;5012089;28;20024;-69
2021/01/01 02:46:02;;;;;;;26.77;13.25;;;4.20;86.00;;;;;;5011284;28;20034;-69
2021/01/01 02:48:28;;;;;;;21.83;12.82;;;4.20;86.00;;;;;;5017265;28;20048;-69
2021/01/01 02:50:53;;;;;;;22.35;12.85;;;4.20;85.90;;;;;;5012154;28;20049;-69
2021/01/01 02:53:19;;;;;;;24.50;13.13;;;4.30;86.00;;;;;;5010866;28;20026;-69
2021/01/01 02:55:45;;;;;;;22.75;13.38;;;4.30;86.00;;;;;;5009904;28;20054;-69
2021/01/01 02:58:11;;;;;;;20.95;12.60;;;4.20;85.80;;;;;;5012096;28;20069;-69
2021/01/01 03:00:39;;;;;;;21.80;11.90;;;4.30;85.80;;;;;;5010259;28;20152;-69
2021/01/01 03:03:05;;;;;;;21.15;11.57;;;4.20;85.80;;;;;;5010520;28;20041;-69
2021/01/01 03:05:31;;;;;;;19.50;11.30;;;4.20;85.90;;;;;;5011438;28;20065;-69
2021/01/01 03:07:56;;;;;;;21.70;11.43;;;4.20;86.00;;;;;;5010339;28;20030;-69
2021/01/01 03:10:22;;;;;;;22.48;12.13;;;4.30;85.90;;;;;;5011676;28;20359;-69
2021/01/01 03:12:48;;;;;;;33.13;17.67;;;4.30;85.80;;;;;;5010401;28;20108;-69
2021/01/01 03:15:14;;;;;;;39.83;19.27;;;4.20;85.70;;;;;;5010040;28;20109;-69
2021/01/01 03:17:41;;;;;;;36.40;19.35;;;4.20;85.70;;;;;;5011465;28;20374;-69
2021/01/01 03:20:07;;;;;;;35.42;18.90;;;4.20;85.80;;;;;;5012042;28;20107;-69
2021/01/01 03:22:33;;;;;;;43.63;20.70;;;4.10;85.80;;;;;;5011595;28;20506;-69
2021/01/01 03:24:58;;;;;;;37.50;19.35;;;4.10;85.90;;;;;;5000557;28;20133;-69
2021/01/01 03:27:24;;;;;;;35.60;19.13;;;4.10;86.00;;;;;;5011402;28;20027;-69
2021/01/01 03:29:50;;;;;;;37.03;19.48;;;4.10;86.10;;;;;;5011161;28;20041;-70
2021/01/01 03:32:15;;;;;;;40.67;20.13;;;4.10;86.10;;;;;;5011583;28;20084;-69
2021/01/01 03:34:41;;;;;;;36.92;18.95;;;4.20;86.20;;;;;;5009749;28;20026;-69
2021/01/01 03:37:07;;;;;;;35.13;18.40;;;4.20;86.10;;;;;;5011591;28;20026;-69
2021/01/01 03:39:33;;;;;;;36.72;19.45;;;4.20;86.10;;;;;;5011608;28;20482;-69
2021/01/01 03:41:59;;;;;;;39.17;19.60;;;4.30;86.10;;;;;;5010942;28;20034;-69
2021/01/01 03:44:24;;;;;;;32.65;17.27;;;4.30;86.10;;;;;;5010440;28;20018;-69
2021/01/01 03:46:50;;;;;;;31.35;16.73;;;4.30;86.00;;;;;;5010006;28;20487;-69
2021/01/01 03:49:15;;;;;;;31.95;17.40;;;4.30;85.90;;;;;;5011062;28;20037;-69
2021/01/01 03:51:41;;;;;;;36.25;19.67;;;4.40;86.30;;;;;;5011234;28;20498;-71
2021/01/01 03:54:06;;;;;;;39.28;20.40;;;4.30;85.70;;;;;;5010470;28;20581;-69
2021/01/01 03:56:32;;;;;;;38.78;19.95;;;4.30;85.60;;;;;;5009610;28;20057;-69
2021/01/01 03:58:57;;;;;;;42.83;21.30;;;4.20;85.60;;;;;;5010935;28;20518;-69
2021/01/01 04:01:23;;;;;;;39.85;19.17;;;4.20;85.70;;;;;;5011943;28;20043;-69
2021/01/01 04:03:48;;;;;;;35.80;18.63;;;4.10;85.80;;;;;;5013140;28;20041;-69
2021/01/01 04:06:14;;;;;;;36.00;18.23;;;4.00;86.00;;;;;;5014210;28;20064;-69
2021/01/01 04:08:39;;;;;;;36.72;18.08;;;4.00;86.10;;;;;;5012121;28;20040;-69
2021/01/01 04:11:05;;;;;;;35.80;18.95;;;4.00;86.10;;;;;;5013101;28;20057;-69
2021/01/01 04:13:31;;;;;;;32.63;17.20;;;4.00;86.10;;;;;;5013121;28;20030;-69
2021/01/01 04:15:56;;;;;;;33.25;16.70;;;4.00;86.10;;;;;;5013154;28;20136;-69
2021/01/01 04:18:22;;;;;;;34.30;16.65;;;4.00;86.30;;;;;;5011942;28;20529;-69
2021/01/01 04:20:47;;;;;;;32.70;17.02;;;4.00;86.30;;;;;;5012034;28;20032;-70
2021/01/01 04:23:13;;;;;;;35.63;16.88;;;4.00;86.40;;;;;;5015153;28;20029;-69
2021/01/01 04:25:39;;;;;;;34.70;15.80;;;4.00;86.20;;;;;;4995462;28;20034;-69
2021/01/01 04:28:04;;;;;;;31.20;16.00;;;4.00;86.30;;;;;;5009391;28;20030;-69
2021/01/01 04:30:30;;;;;;;30.60;15.68;;;4.10;86.40;;;;;;5013521;28;20498;-69
2021/01/01 04:32:55;;;;;;;29.75;16.10;;;4.10;86.30;;;;;;5014791;28;20048;-69
2021/01/01 04:35:21;;;;;;;33.63;16.60;;;4.10;86.20;;;;;;5014382;28;20030;-69
2021/01/01 04:37:47;;;;;;;31.65;15.90;;;4.10;86.10;;;;;;5006860;28;20030;-69
2021/01/01 04:40:13;;;;;;;30.85;16.38;;;4.10;86.20;;;;;;5018768;28;20541;-69
2021/01/01 04:42:39;;;;;;;33.13;16.80;;;4.00;86.10;;;;;;5022618;28;20022;-69
2021/01/01 04:45:07;;;;;;;34.70;16.90;;;4.00;86.10;;;;;;5003923;28;20034;-69
2021/01/01 04:47:33;;;;;;;35.55;16.67;;;4.00;86.10;;;;;;5014504;28;20216;-69
2021/01/01 04:52:30;;;;;;;31.67;15.95;;;3.90;86.40;;;;;;5050164;28;20045;-70
2021/01/01 04:54:57;;;;;;;35.50;16.92;;;3.90;86.50;;;;;;5034699;28;20028;-71
2021/01/01 04:57:24;;;;;;;39.72;17.58;;;3.90;86.50;;;;;;5053185;28;20468;-70
2021/01/01 04:59:49;;;;;;;30.23;16.35;;;3.90;86.40;;;;;;5052965;28;20048;-70
2021/01/01 05:02:15;;;;;;;30.55;15.90;;;3.90;86.40;;;;;;5051340;28;20053;-71
2021/01/01 05:04:44;;;;;;;35.03;15.38;;;3.90;86.40;;;;;;5052651;28;20029;-71
2021/01/01 05:07:15;;;;;;;32.00;15.88;;;3.80;86.40;;;;;;5034813;28;20021;-70
2021/01/01 05:09:41;;;;;;;33.05;15.88;;;3.90;86.60;;;;;;5053004;28;20151;-71
2021/01/01 05:12:08;;;;;;;35.05;15.95;;;3.90;86.60;;;;;;5052999;28;20036;-70
2021/01/01 05:14:33;;;;;;;30.05;14.82;;;3.80;86.60;;;;;;5052535;28;20028;-68
2021/01/01 05:16:59;;;;;;;30.27;14.98;;;3.80;86.50;;;;;;5053084;28;20033;-70
2021/01/01 05:19:34;;;;;;;29.52;15.68;;;3.80;86.50;;;;;;5052900;28;20031;-70
2021/01/01 05:22:04;;;;;;;32.25;15.93;;;3.80;86.70;;;;;;5053143;28;20021;-70
2021/01/01 05:24:36;;;;;;;26.02;13.88;;;3.80;86.60;;;;;;5041916;28;20033;-68
2021/01/01 05:27:18;;;;;;;28.05;15.05;;;3.80;86.60;;;;;;5042050;28;20029;-71
2021/01/01 05:29:54;;;;;;;27.77;14.32;;;3.80;86.60;;;;;;5052189;28;20163;-71
2021/01/01 05:32:28;;;;;;;29.58;14.30;;;3.70;86.60;;;;;;5041043;28;20037;-69
2021/01/01 05:34:55;;;;;;;28.50;14.52;;;3.80;86.80;;;;;;5014267;28;20052;-67
2021/01/01 05:37:31;;;;;;;25.75;14.02;;;3.70;86.60;;;;;;5043216;28;20033;-69
2021/01/01 05:40:05;;;;;;;33.10;14.95;;;3.70;86.80;;;;;;5032896;28;20635;-70
2021/01/01 05:42:31;;;;;;;29.80;14.85;;;3.70;86.80;;;;;;5050943;28;20025;-70
2021/01/01 05:44:57;;;;;;;29.13;13.77;;;3.70;86.80;;;;;;5052114;28;20017;-70
2021/01/01 05:47:23;;;;;;;26.45;13.73;;;3.80;86.90;;;;;;5052251;28;20047;-70
2021/01/01 05:49:48;;;;;;;29.13;14.20;;;3.80;86.90;;;;;;5052404;28;20037;-68
2021/01/01 05:52:18;;;;;;;28.67;14.50;;;3.80;86.80;;;;;;5052095;28;20029;-71
2021/01/01 05:54:50;;;;;;;28.42;14.35;;;3.80;86.90;;;;;;5051757;28;20044;-70
2021/01/01 05:57:17;;;;;;;27.38;13.07;;;3.80;86.90;;;;;;5051794;28;20029;-69
2021/01/01 05:59:46;;;;;;;25.38;13.30;;;3.80;86.70;;;;;;5034014;28;20509;-68
2021/01/01 06:02:12;;;;;;;27.13;13.57;;;3.80;86.90;;;;;;5041556;28;20030;-70
2021/01/01 06:04:38;;;;;;;28.17;12.93;;;3.80;86.80;;;;;;5043424;28;20025;-70
2021/01/01 06:07:07;;;;;;;25.98;14.10;;;3.80;86.80;;;;;;5034090;28;20542;-70
2021/01/01 06:09:34;;;;;;;24.92;11.95;;;3.80;86.80;;;;;;5034006;28;20032;-70
2021/01/01 06:12:05;;;;;;;27.90;13.00;;;3.80;86.80;;;;;;5051486;28;20029;-69
2021/01/01 06:14:36;;;;;;;24.73;12.57;;;3.80;86.70;;;;;;5042754;28;20104;-70
2021/01/01 06:17:10;;;;;;;24.80;12.70;;;3.80;86.90;;;;;;5050658;28;20424;-69
2021/01/01 06:19:48;;;;;;;24.77;12.77;;;3.80;86.90;;;;;;5034563;28;20021;-70
2021/01/01 06:22:16;;;;;;;23.73;12.68;;;3.80;86.70;;;;;;5051329;28;20074;-69
2021/01/01 06:24:47;;;;;;;27.70;14.02;;;3.80;86.70;;;;;;5031276;28;20025;-70
2021/01/01 06:27:13;;;;;;;22.92;12.80;;;3.80;86.70;;;;;;5023504;28;20087;-69
2021/01/01 06:29:44;;;;;;;25.20;12.70;;;3.70;86.70;;;;;;5052148;28;20484;-69
2021/01/01 06:32:11;;;;;;;27.63;13.38;;;3.70;86.70;;;;;;5041807;28;20053;-68
2021/01/01 06:34:36;;;;;;;29.20;14.73;;;3.70;86.70;;;;;;5031422;28;20025;-69
2021/01/01 06:37:02;;;;;;;29.20;13.82;;;3.70;86.70;;;;;;5049547;28;20037;-67
2021/01/01 06:39:37;;;;;;;27.55;14.00;;;3.70;86.70;;;;;;5051445;28;20027;-70
2021/01/01 06:42:03;;;;;;;24.52;13.30;;;3.70;86.60;;;;;;5050840;28;20021;-69
2021/01/01 06:44:34;;;;;;;28.17;13.90;;;3.70;86.50;;;;;;5050897;28;20029;-70
2021/01/01 06:47:00;;;;;;;26.73;13.27;;;3.70;86.60;;;;;;5051201;28;20124;-67
2021/01/01 06:49:37;;;;;;;31.23;16.50;;;3.70;86.70;;;;;;5051075;28;20052;-70
2021/01/01 06:52:17;;;;;;;28.95;14.45;;;3.70;86.70;;;;;;5050800;28;20048;-70
2021/01/01 06:54:55;;;;;;;24.48;12.95;;;3.70;86.70;;;;;;5032503;28;20029;-68
2021/01/01 06:57:27;;;;;;;31.35;13.98;;;3.70;86.80;;;;;;5038442;28;20033;-70
2021/01/01 06:59:53;;;;;;;28.50;15.10;;;3.70;86.90;;;;;;5051239;28;20025;-70
2021/01/01 07:02:26;;;;;;;29.35;14.15;;;3.70;86.70;;;;;;5033211;28;20480;-70
2021/01/01 07:04:53;;;;;;;30.77;14.70;;;3.70;86.70;;;;;;5051090;28;20033;-71
2021/01/01 07:07:38;;;;;;;26.88;14.10;;;3.70;86.80;;;;;;5051945;28;20370;-69
2021/01/01 07:10:05;;;;;;;31.75;14.50;;;3.60;86.80;;;;;;5051987;28;20453;-69
2021/01/01 07:12:31;;;;;;;26.63;14.57;;;3.60;86.60;;;;;;5049606;28;20029;-67
2021/01/01 07:14:57;;;;;;;31.48;15.13;;;3.60;86.70;;;;;;5051461;28;20052;-70
2021/01/01 07:17:23;;;;;;;29.20;15.20;;;3.60;86.80;;;;;;5033711;28;20556;-70
2021/01/01 07:19:49;;;;;;;29.77;14.40;;;3.60;86.80;;;;;;5051656;28;20029;-70
2021/01/01 07:22:14;;;;;;;28.10;14.10;;;3.70;86.80;;;;;;5049365;28;20492;-69
2021/01/01 07:24:43;;;;;;;27.67;14.45;;;3.70;86.80;;;;;;5045485;28;20513;-70
2021/01/01 07:27:09;;;;;;;31.40;14.43;;;3.60;86.60;;;;;;5032510;28;20033;-69
2021/01/01 07:29:35;;;;;;;29.75;14.82;;;3.60;86.60;;;;;;5032767;28;20408;-70
2021/01/01 07:32:00;;;;;;;27.98;13.90;;;3.60;86.60;;;;;;5046869;28;20024;-70
2021/01/01 07:34:26;;;;;;;29.48;14.20;;;3.60;87.20;;;;;;5032563;28;20115;-69
2021/01/01 07:36:53;;;;;;;28.45;14.18;;;3.60;86.70;;;;;;5032500;28;20033;-70
2021/01/01 07:39:26;;;;;;;30.65;15.68;;;3.60;86.70;;;;;;5050923;28;20028;-70
2021/01/01 07:42:03;;;;;;;30.02;14.70;;;3.60;86.80;;;;;;5049549;28;20040;-67
2021/01/01 07:44:28;;;;;;;29.75;15.00;;;3.60;86.80;;;;;;5049854;28;20025;-68
2021/01/01 07:46:54;;;;;;;30.48;14.82;;;3.60;86.80;;;;;;5050394;28;20093;-68
2021/01/01 07:49:19;;;;;;;31.42;15.50;;;3.60;86.70;;;;;;5049712;28;20063;-69
2021/01/01 07:51:45;;;;;;;26.38;14.63;;;3.60;86.70;;;;;;5049889;28;20044;-70
2021/01/01 07:54:10;;;;;;;31.65;14.63;;;3.60;86.70;;;;;;5050209;28;20033;-68
2021/01/01 07:56:36;;;;;;;26.38;13.55;;;3.60;86.80;;;;;;5051512;28;20087;-68
2021/01/01 07:59:02;;;;;;;26.88;13.98;;;3.60;86.90;;;;;;5054703;28;20063;-69
2021/01/01 08:01:30;;;;;;;27.85;13.38;;;3.60;87.50;;;;;;5051233;28;20096;-69
2021/01/01 08:03:57;;;;;;;24.90;14.15;;;3.70;87.00;;;;;;5029639;28;20030;-69
2021/01/01 08:06:23;;;;;;;31.70;15.27;;;3.70;86.90;;;;;;5054140;28;20124;-68
2021/01/01 08:08:49;;;;;;;26.20;14.13;;;3.70;86.90;;;;;;5052771;28;20037;-69
2021/01/01 08:11:15;;;;;;;29.73;14.45;;;3.70;86.70;;;;;;5052613;28;20062;-69
2021/01/01 08:13:41;;;;;;;30.73;14.32;;;3.70;86.70;;;;;;5055122;28;20420;-66
2021/01/01 08:16:14;;;;;;;24.90;12.57;;;3.70;86.60;;;;;;5051077;28;20036;-69
2021/01/01 08:18:40;;;;;;;27.30;12.93;;;3.70;86.60;;;;;;5054840;28;20100;-70
2021/01/01 08:21:07;;;;;;;30.38;14.57;;;3.60;86.70;;;;;;5036248;28;20119;-68
2021/01/01 08:23:55;;;;;;;24.08;13.20;;;3.60;86.80;;;;;;5054122;28;20017;-69
2021/01/01 08:26:21;;;;;;;29.35;13.68;;;3.60;86.70;;;;;;5051979;28;20094;-69
2021/01/01 08:28:50;;;;;;;27.15;13.13;;;3.60;86.60;;;;;;5031389;28;20068;-67
2021/01/01 08:31:20;;;;;;;27.63;13.95;;;3.60;86.60;;;;;;5047992;28;20029;-68
2021/01/01 08:33:50;;;;;;;25.83;13.85;;;3.60;86.70;;;;;;5053709;28;20021;-69
2021/01/01 08:36:16;;;;;;;24.35;13.32;;;3.60;86.80;;;;;;5053934;28;20472;-69
2021/01/01 08:38:47;;;;;;;25.85;13.18;;;3.60;86.80;;;;;;5053335;28;20109;-69
2021/01/01 08:41:17;;;;;;;26.63;14.55;;;3.60;86.70;;;;;;5052761;28;20068;-69
2021/01/01 08:43:43;;;;;;;27.27;13.85;;;3.70;87.00;;;;;;5053111;28;20031;-69
2021/01/01 08:46:16;;;;;;;23.98;13.48;;;3.70;86.90;;;;;;5047405;28;20424;-68
2021/01/01 08:48:41;;;;;;;21.77;11.57;;;3.70;86.70;;;;;;5040452;28;20091;-68
2021/01/01 08:51:07;;;;;;;23.55;12.55;;;3.70;86.70;;;;;;5042670;28;20100;-68
2021/01/01 08:53:38;;;;;;;24.63;11.95;;;3.70;86.80;;;;;;5042971;28;20024;-68
2021/01/01 08:56:04;;;;;;;20.95;11.48;;;3.70;86.90;;;;;;5043321;28;20425;-67
2021/01/01 08:58:30;;;;;;;23.45;11.70;;;3.70;86.90;;;;;;5024277;28;20656;-67
2021/01/01 09:00:56;;;;;;;19.25;10.57;;;3.80;87.20;;;;;;5042756;28;20040;-67
2021/01/01 09:03:23;;;;;;;19.92;10.88;;;3.80;86.50;;;;;;5024807;28;20047;-67
2021/01/01 09:05:53;;;;;;;18.60;9.98;;;3.80;86.60;;;;;;5042434;28;20047;-67
2021/01/01 09:08:21;;;;;;;18.80;10.25;;;3.80;86.60;;;;;;5043161;28;20025;-67
2021/01/01 09:10:49;;;;;;;15.23;8.35;;;3.80;86.70;;;;;;5043437;28;20052;-67
2021/01/01 09:13:26;;;;;;;15.95;8.98;;;3.80;86.30;;;;;;5041930;28;20017;-67
2021/01/01 09:16:08;;;;;;;13.60;7.20;;;3.80;86.30;;;;;;5044328;28;20120;-67
2021/01/01 09:18:34;;;;;;;10.33;6.43;;;3.80;86.40;;;;;;5043402;28;20060;-68
2021/01/01 09:21:16;;;;;;;7.53;5.10;;;3.80;86.30;;;;;;5042934;28;20428;-68
2021/01/01 09:23:49;;;;;;;;;;;3.80;86.00;;;;;;5043589;28;20528;-68
2021/01/01 09:26:22;;;;;;;9.07;5.15;;;3.80;86.10;;;;;;5041570;28;20687;-70
2021/01/01 09:28:49;;;;;;;7.55;5.88;;;3.80;86.00;;;;;;5050648;28;20124;-68
2021/01/01 09:31:17;;;;;;;9.45;6.10;;;3.80;86.60;;;;;;5033001;28;20025;-68
2021/01/01 09:34:05;;;;;;;8.07;5.43;;;3.80;85.90;;;;;;5029801;28;20064;-67
2021/01/01 09:36:35;;;;;;;8.32;5.32;;;3.70;86.00;;;;;;5028740;28;20045;-68
2021/01/01 09:39:01;;;;;;;7.10;5.00;;;3.80;86.00;;;;;;5043706;28;20026;-68
2021/01/01 09:41:27;;;;;;;6.28;4.97;;;3.80;86.00;;;;;;5027839;28;20024;-68
2021/01/01 09:43:53;;;;;;;6.60;4.70;;;3.80;85.80;;;;;;5050272;28;20029;-66
2021/01/01 09:46:19;;;;;;;8.30;4.90;;;3.80;85.90;;;;;;5032630;28;20025;-66
2021/01/01 09:48:44;;;;;;;6.85;4.32;;;3.80;85.90;;;;;;5038442;28;20037;-67
2021/01/01 09:51:10;;;;;;;7.68;4.57;;;3.90;86.00;;;;;;5047688;28;20103;-67
2021/01/01 09:53:35;;;;;;;6.68;4.15;;;3.90;85.70;;;;;;5041026;28;20052;-66
2021/01/01 09:56:01;;;;;;;6.10;4.10;;;3.90;85.50;;;;;;5051562;28;20037;-67
2021/01/01 09:58:26;;;;;;;6.18;4.45;;;4.00;85.30;;;;;;5048444;28;20032;-67
2021/01/01 10:00:52;;;;;;;5.25;4.22;;;4.00;85.60;;;;;;5032130;28;20022;-66
2021/01/01 10:03:17;;;;;;;5.65;3.83;;;4.00;85.60;;;;;;5045964;28;20025;-66
2021/01/01 10:05:46;;;;;;;8.00;4.90;;;4.10;85.40;;;;;;5050971;28;20500;-66
2021/01/01 10:08:14;;;;;;;11.30;6.60;;;4.10;85.10;;;;;;5048648;28;20029;-67
2021/01/01 10:10:39;;;;;;;6.35;4.85;;;4.20;85.80;;;;;;5038137;28;20022;-67
2021/01/01 10:13:05;;;;;;;4.97;4.07;;;4.40;86.00;;;;;;5050473;28;20035;-67
2021/01/01 10:15:31;;;;;;;4.32;3.60;;;4.50;85.40;;;;;;5032395;28;20056;-67
2021/01/01 10:17:56;;;;;;;5.97;4.82;;;4.60;84.90;;;;;;5050960;28;20086;-67
2021/01/01 10:20:22;;;;;;;4.53;3.72;;;4.60;84.90;;;;;;5051352;28;20033;-68
2021/01/01 10:22:47;;;;;;;4.57;3.72;;;4.70;84.70;;;;;;5051258;28;20029;-67
2021/01/01 10:25:13;;;;;;;4.93;3.78;;;4.60;84.10;;;;;;5033597;28;20039;-67
2021/01/01 10:27:39;;;;;;;4.95;3.67;;;4.60;84.00;;;;;;5051156;28;20028;-67
2021/01/01 10:30:05;;;;;;;3.85;3.45;;;4.60;84.00;;;;;;5036097;28;20068;-66
2021/01/01 10:32:30;;;;;;;7.38;3.97;;;4.50;84.00;;;;;;5032982;28;20476;-67
2021/01/01 10:34:56;;;;;;;3.90;3.45;;;4.50;84.30;;;;;;5049940;28;20032;-66
2021/01/01 10:37:22;;;;;;;4.22;3.50;;;4.50;83.80;;;;;;5048654;28;20049;-66
2021/01/01 10:39:47;;;;;;;4.93;3.63;;;4.50;83.90;;;;;;5043538;28;20493;-66
2021/01/01 10:42:13;;;;;;;4.43;3.78;;;4.50;84.00;;;;;;5046729;28;20114;-67
2021/01/01 10:44:38;;;;;;;3.97;3.58;;;4.50;83.90;;;;;;5050314;28;20417;-67
2021/01/01 10:47:06;;;;;;;4.75;4.10;;;4.50;83.70;;;;;;5051144;28;20433;-64
2021/01/01 10:49:33;;;;;;;5.00;3.60;;;4.40;83.80;;;;;;5062699;22;20044;-69
2021/01/01 10:52:00;;;;;;;5.25;3.88;;;4.40;83.80;;;;;;5043581;28;20108;-68
2021/01/01 10:54:26;;;;;;;5.13;3.83;;;4.40;83.70;;;;;;5047671;28;20025;-69
2021/01/01 10:56:52;;;;;;;3.95;3.42;;;4.50;83.80;;;;;;5051247;28;20037;-70
2021/01/01 10:59:17;;;;;;;4.90;3.97;;;4.50;83.50;;;;;;5050040;28;20029;-68
2021/01/01 11:01:43;;;;;;;5.95;4.65;;;4.40;83.40;;;;;;5051190;28;20029;-68
2021/01/01 11:04:08;;;;;;;5.18;3.97;;;4.40;83.50;;;;;;5043671;28;20460;-68
2021/01/01 11:06:35;;;;;;;7.25;4.32;;;4.40;83.70;;;;;;5040663;28;20028;-68
2021/01/01 11:09:02;;;;;;;7.15;6.38;;;4.30;83.70;;;;;;5040468;28;20029;-68
2021/01/01 11:11:27;;;;;;;4.05;3.65;;;4.40;83.70;;;;;;5042280;28;20033;-69
2021/01/01 11:13:59;;;;;;;4.68;3.78;;;4.40;84.20;;;;;;5039301;28;20081;-68
2021/01/01 12:24:48;;;;;;;3.53;3.20;;;4.70;82.80;;;;;;5048895;28;20021;-68
2021/01/01 12:27:25;;;;;;;3.45;3.15;;;4.70;82.80;;;;;;5049682;28;20032;-68
2021/01/01 12:29:52;;;;;;;4.20;3.58;;;4.70;82.80;;;;;;5050230;28;20456;-67
2021/01/01 12:32:19;;;;;;;7.38;5.22;;;4.80;82.60;;;;;;5049884;28;20033;-68
2021/01/01 12:34:45;;;;;;;9.80;6.15;;;4.80;82.30;;;;;;5048470;28;20051;-68
2021/01/01 12:37:11;;;;;;;7.80;5.00;;;4.80;82.50;;;;;;5049771;28;20473;-68
2021/01/01 12:39:37;;;;;;;4.28;3.42;;;4.80;82.50;;;;;;5049443;28;20032;-68
2021/01/01 12:42:04;;;;;;;4.60;3.80;;;4.80;82.30;;;;;;5050919;28;20028;-68
2021/01/01 12:44:30;;;;;;;5.00;4.03;;;4.80;82.20;;;;;;5052944;28;20028;-69
2021/01/01 12:46:58;;;;;;;4.82;4.05;;;4.80;82.20;;;;;;5039469;28;20032;-68
2021/01/01 12:49:24;;;;;;;4.68;4.18;;;4.80;81.90;;;;;;5047645;28;20029;-68
2021/01/01 12:51:50;;;;;;;5.68;4.50;;;4.70;81.90;;;;;;5040390;28;20043;-68
2021/01/01 12:54:15;;;;;;;6.10;4.82;;;4.70;82.20;;;;;;5052558;28;20078;-68
2021/01/01 12:56:41;;;;;;;5.68;3.92;;;4.70;82.00;;;;;;5053389;28;20029;-68
2021/01/01 12:59:06;;;;;;;5.15;3.88;;;4.70;82.00;;;;;;5053565;28;20020;-68
2021/01/01 13:01:35;;;;;;;5.25;4.00;;;4.70;82.20;;;;;;5053451;28;20116;-69
2021/01/01 13:04:01;;;;;;;4.68;3.72;;;4.70;81.90;;;;;;5052280;28;20025;-68
2021/01/01 13:06:27;;;;;;;5.65;4.03;;;4.60;81.70;;;;;;5052660;28;20028;-69
2021/01/01 13:08:53;;;;;;;6.97;4.22;;;4.60;81.80;;;;;;5053256;28;20496;-69
2021/01/01 13:11:19;;;;;;;6.80;5.15;;;4.60;82.10;;;;;;5052999;28;20106;-69
2021/01/01 13:13:44;;;;;;;5.55;4.13;;;4.60;82.00;;;;;;5053145;28;20477;-68
2021/01/01 13:16:10;;;;;;;6.18;5.00;;;4.60;81.80;;;;;;5049441;28;20033;-68
2021/01/01 13:18:36;;;;;;;7.38;4.28;;;4.50;81.90;;;;;;5050306;28;20025;-68
2021/01/01 13:21:06;;;;;;;5.70;4.40;;;4.50;82.10;;;;;;5049200;28;20031;-68
2021/01/01 13:23:39;;;;;;;7.10;4.60;;;4.50;82.10;;;;;;5050216;28;20032;-68
2021/01/01 13:26:04;;;;;;;6.22;4.20;;;4.50;82.00;;;;;;5052052;28;20370;-67
2021/01/01 13:28:30;;;;;;;5.68;4.28;;;4.50;82.10;;;;;;5052551;28;20088;-68
2021/01/01 13:30:55;;;;;;;5.78;4.57;;;4.50;82.00;;;;;;5049788;28;20028;-68
2021/01/01 13:33:21;;;;;;;5.57;4.28;;;4.50;82.00;;;;;;5042586;28;20482;-70
2021/01/01 13:35:51;;;;;;;5.78;4.20;;;4.50;82.10;;;;;;5050687;28;20029;-72
2021/01/01 13:38:17;;;;;;;4.75;3.90;;;4.60;82.10;;;;;;5052305;28;20036;-72
2021/01/01 13:40:43;;;;;;;6.07;3.97;;;4.60;81.90;;;;;;5051923;28;20469;-68
2021/01/01 13:43:08;;;;;;;5.72;4.07;;;4.60;81.80;;;;;;5051779;28;20100;-68
2021/01/01 13:45:34;;;;;;;5.20;4.00;;;4.60;82.20;;;;;;5051577;28;20115;-69
2021/01/01 13:47:59;;;;;;;8.38;4.18;;;4.60;82.20;;;;;;5041145;28;20076;-69
2021/01/01 13:50:25;;;;;;;5.53;4.43;;;4.70;82.50;;;;;;5039392;28;20097;-69
2021/01/01 13:52:51;;;;;;;3.92;3.50;;;4.80;82.60;;;;;;5051479;28;20044;-69
2021/01/01 13:55:16;;;;;;;4.80;3.50;;;4.80;82.30;;;;;;5050768;28;20035;-69